createdAt,value
2023-04-05T00:08:50.202Z,4.50
2023-04-05T00:11:18.645Z,4.30
2023-04-05T00:13:45.449Z,4.40
2023-04-05T00:16:12.210Z,4.97
2023-04-05T00:18:39.958Z,3.60
2023-04-05T00:21:06.589Z,4.53
2023-04-05T00:23:40.180Z,3.83
2023-04-05T00:26:11.759Z,3.93
2023-04-05T00:28:42.324Z,4.07
2023-04-05T00:31:10.147Z,4.27
2023-04-05T00:33:39.105Z,4.30
2023-04-05T00:36:20.361Z,4.17
2023-04-05T00:38:50.825Z,3.70
2023-04-05T00:41:18.557Z,3.67
2023-04-05T00:43:47.485Z,3.97
2023-04-05T00:46:17.304Z,3.83
2023-04-05T00:48:47.272Z,3.77
2023-04-05T00:51:14.447Z,3.80
2023-04-05T00:53:43.207Z,3.83
2023-04-05T00:56:14.101Z,3.90
2023-04-05T00:58:43.138Z,4.00
2023-04-05T01:01:28.077Z,3.90
2023-04-05T01:04:11.311Z,4.20
2023-04-05T01:07:06.098Z,3.43
2023-04-05T01:09:41.367Z,4.10
2023-04-05T01:12:13.083Z,4.33
2023-04-05T01:14:52.023Z,4.40
2023-04-05T01:17:23.352Z,3.83
2023-04-05T01:19:58.989Z,4.20
2023-04-05T01:22:47.998Z,3.87
2023-04-05T01:25:19.789Z,4.00
2023-04-05T01:27:59.466Z,4.27
2023-04-05T01:30:35.182Z,4.10
2023-04-05T01:33:18.026Z,3.73
2023-04-05T01:36:06.167Z,3.57
2023-04-05T01:38:42.394Z,3.77
2023-04-05T01:41:14.484Z,3.60
2023-04-05T01:43:44.022Z,3.60
2023-04-05T01:46:12.440Z,3.70
2023-04-05T01:48:39.342Z,3.60
2023-04-05T01:51:06.889Z,4.07
2023-04-05T01:53:34.146Z,3.70
2023-04-05T01:56:01.779Z,3.90
2023-04-05T01:58:28.965Z,3.80
2023-04-05T02:00:56.461Z,3.57
2023-04-05T02:03:25.001Z,3.27
2023-04-05T02:05:52.993Z,3.60
2023-04-05T02:08:19.767Z,4.00
2023-04-05T02:10:48.713Z,3.60
2023-04-05T02:13:15.527Z,3.47
2023-04-05T02:15:50.714Z,3.87
2023-04-05T02:18:22.494Z,3.53
2023-04-05T02:20:51.881Z,4.00
2023-04-05T02:23:20.222Z,3.53
2023-04-05T02:25:47.553Z,3.73
2023-04-05T02:28:14.424Z,3.23
2023-04-05T02:30:42.285Z,3.57
2023-04-05T02:33:11.200Z,3.77
2023-04-05T02:35:39.503Z,3.07
2023-04-05T02:38:07.218Z,3.67
2023-04-05T02:40:37.870Z,3.70
2023-04-05T02:43:06.635Z,3.60
2023-04-05T02:45:33.954Z,3.73
2023-04-05T02:48:02.561Z,3.17
2023-04-05T02:53:48.901Z,4.00
2023-04-05T02:59:18.303Z,3.40
2023-04-05T03:01:48.906Z,3.70
2023-04-05T03:04:27.078Z,3.50
2023-04-05T03:07:05.759Z,3.40
2023-04-05T03:09:40.040Z,3.57
2023-04-05T03:12:14.572Z,3.43
2023-04-05T03:14:51.155Z,3.37
2023-04-05T03:17:28.040Z,3.27
2023-04-05T03:20:01.006Z,3.63
2023-04-05T03:22:28.585Z,3.93
2023-04-05T03:24:57.508Z,3.60
2023-04-05T03:27:26.307Z,3.17
2023-04-05T03:30:15.213Z,3.20
2023-04-05T03:32:49.682Z,2.90
2023-04-05T03:35:34.425Z,3.20
2023-04-05T03:38:02.478Z,3.70
2023-04-05T03:40:30.014Z,3.30
2023-04-05T03:42:57.255Z,3.73
2023-04-05T03:45:24.688Z,3.13
2023-04-05T03:47:52.421Z,3.27
2023-04-05T03:50:19.322Z,3.50
2023-04-05T03:52:50.169Z,3.40
2023-04-05T03:55:18.587Z,3.27
2023-04-05T03:58:04.677Z,3.10
2023-04-05T04:01:04.219Z,3.20
2023-04-05T04:03:39.120Z,3.47
2023-04-05T04:06:34.172Z,3.30
2023-04-05T04:09:02.930Z,3.40
2023-04-05T04:11:35.701Z,3.50
2023-04-05T04:14:07.099Z,3.60
2023-04-05T04:16:53.420Z,3.63
2023-04-05T04:19:31.072Z,3.40
2023-04-05T04:22:33.954Z,3.10
2023-04-05T04:25:19.125Z,3.47
2023-04-05T04:28:13.547Z,3.50
2023-04-05T04:31:06.092Z,3.57
2023-04-05T04:34:00.306Z,3.67
2023-04-05T04:37:03.113Z,3.17
2023-04-05T04:40:00.227Z,2.90
2023-04-05T04:42:39.682Z,3.43
2023-04-05T04:45:26.687Z,3.30
2023-04-05T04:48:20.796Z,3.03
2023-04-05T04:51:00.424Z,3.10
2023-04-05T04:53:34.983Z,3.23
2023-04-05T04:56:04.002Z,3.23
2023-04-05T04:58:31.410Z,3.53
2023-04-05T05:01:10.369Z,3.10
2023-04-05T05:03:43.185Z,3.23
2023-04-05T05:06:11.140Z,3.30
2023-04-05T05:08:40.539Z,3.50
2023-04-05T05:11:17.301Z,3.47
2023-04-05T05:13:51.919Z,3.80
2023-04-05T05:16:31.868Z,3.20
2023-04-05T05:19:02.994Z,3.00
2023-04-05T05:21:41.953Z,2.97
2023-04-05T05:24:19.479Z,3.20
2023-04-05T05:26:50.341Z,2.60
2023-04-05T05:29:21.606Z,3.13
2023-04-05T05:31:54.232Z,3.23
2023-04-05T05:34:25.823Z,2.83
2023-04-05T05:37:01.508Z,3.27
2023-04-05T05:39:30.130Z,3.13
2023-04-05T05:42:01.916Z,2.97
2023-04-05T05:44:34.083Z,3.17
2023-04-05T05:47:12.702Z,3.10
2023-04-05T05:49:46.575Z,2.90
2023-04-05T05:52:26.628Z,3.10
2023-04-05T05:54:55.693Z,2.80
2023-04-05T05:57:23.003Z,4.50
2023-04-05T05:59:49.786Z,2.90
2023-04-05T06:02:16.670Z,3.03
2023-04-05T06:04:44.160Z,2.97
2023-04-05T06:07:11.251Z,2.80
2023-04-05T06:09:38.066Z,2.60
2023-04-05T06:12:05.071Z,2.93
2023-04-05T06:14:31.826Z,3.10
2023-04-05T06:16:58.614Z,2.80
2023-04-05T06:19:25.518Z,3.40
2023-04-05T06:21:52.303Z,2.60
2023-04-05T06:24:18.985Z,2.87
2023-04-05T06:26:45.678Z,2.80
2023-04-05T06:29:12.657Z,2.60
2023-04-05T06:31:39.311Z,2.70
2023-04-05T06:34:06.322Z,2.57
2023-04-05T06:36:34.330Z,2.47
2023-04-05T06:39:01.364Z,2.70
2023-04-05T06:41:28.240Z,2.40
2023-04-05T06:43:56.466Z,2.33
2023-04-05T06:46:23.699Z,2.20
2023-04-05T06:48:51.891Z,2.70
2023-04-05T06:51:18.934Z,2.30
2023-04-05T06:53:45.926Z,2.00
2023-04-05T06:56:12.802Z,2.57
2023-04-05T06:58:39.588Z,2.30
2023-04-05T07:01:06.787Z,2.50
2023-04-05T07:03:33.997Z,2.43
2023-04-05T07:06:01.359Z,2.77
2023-04-05T07:08:29.454Z,2.47
2023-04-05T07:10:56.437Z,2.30
2023-04-05T07:13:24.776Z,2.10
2023-04-05T07:15:52.457Z,2.17
2023-04-05T07:18:19.338Z,2.40
2023-04-05T07:20:48.327Z,2.40
2023-04-05T07:23:14.977Z,2.23
2023-04-05T07:25:41.676Z,2.70
2023-04-05T07:28:08.332Z,2.60
2023-04-05T07:30:36.445Z,2.60
2023-04-05T07:33:03.141Z,2.43
2023-04-05T07:35:29.904Z,2.43
2023-04-05T07:37:56.673Z,2.80
2023-04-05T07:40:23.369Z,2.80
2023-04-05T07:42:49.973Z,2.47
2023-04-05T07:45:16.715Z,2.60
2023-04-05T07:47:43.453Z,2.30
2023-04-05T07:50:12.102Z,2.33
2023-04-05T07:52:38.715Z,2.53
2023-04-05T07:55:07.022Z,2.80
2023-04-05T07:57:33.684Z,2.53
2023-04-05T08:00:00.393Z,2.80
2023-04-05T08:02:27.167Z,3.03
2023-04-05T08:04:54.051Z,2.60
2023-04-05T08:07:20.791Z,2.47
2023-04-05T08:09:47.534Z,2.43
2023-04-05T08:12:14.129Z,2.50
2023-04-05T08:14:41.824Z,2.20
2023-04-05T08:17:08.618Z,2.07
2023-04-05T08:19:35.322Z,2.37
2023-04-05T08:22:01.988Z,2.23
2023-04-05T08:24:28.887Z,2.03
2023-04-05T08:26:56.204Z,2.00
2023-04-05T08:29:22.901Z,2.53
2023-04-05T08:31:49.628Z,2.47
2023-04-05T08:34:16.333Z,2.50
2023-04-05T08:36:43.069Z,2.30
2023-04-05T08:39:10.707Z,2.43
2023-04-05T08:41:41.404Z,2.10
2023-04-05T08:44:10.345Z,2.60
2023-04-05T08:46:37.189Z,2.20
2023-04-05T08:49:08.144Z,2.50
2023-04-05T08:51:41.289Z,2.47
2023-04-05T08:54:08.216Z,2.17
2023-04-05T08:56:36.436Z,2.47
2023-04-05T08:59:07.709Z,2.30
2023-04-05T09:01:38.509Z,2.13
2023-04-05T09:04:13.003Z,2.23
2023-04-05T09:06:39.866Z,2.80
2023-04-05T09:09:08.522Z,3.03
2023-04-05T09:11:36.066Z,2.20
2023-04-05T09:14:05.832Z,2.30
2023-04-05T09:16:34.299Z,2.50
2023-04-05T09:19:01.171Z,2.67
2023-04-05T09:21:29.398Z,2.60
2023-04-05T09:23:56.413Z,2.70
2023-04-05T09:26:25.446Z,2.10
2023-04-05T09:28:56.544Z,2.50
2023-04-05T09:31:33.829Z,2.03
2023-04-05T09:34:06.926Z,2.27
2023-04-05T09:36:34.359Z,2.30
2023-04-05T09:39:08.907Z,2.13
2023-04-05T09:41:36.479Z,2.10
2023-04-05T09:44:03.498Z,2.20
2023-04-05T09:46:37.313Z,2.30
2023-04-05T09:49:07.018Z,2.20
2023-04-05T09:51:35.919Z,2.57
2023-04-05T09:54:07.208Z,2.30
2023-04-05T09:56:36.973Z,2.50
2023-04-05T09:59:11.549Z,2.30
2023-04-05T10:01:41.532Z,2.23
2023-04-05T10:04:08.799Z,2.33
2023-04-05T10:06:36.275Z,2.10
2023-04-05T10:09:05.025Z,2.10
2023-04-05T10:11:36.336Z,2.20
2023-04-05T10:14:08.047Z,1.87
2023-04-05T10:16:44.460Z,1.83
2023-04-05T10:19:16.962Z,1.90
2023-04-05T10:21:44.573Z,2.17
2023-04-05T10:24:40.749Z,1.90
2023-04-05T10:27:47.485Z,1.90
2023-04-05T10:30:16.180Z,1.90
2023-04-05T10:33:12.485Z,2.30
2023-04-05T10:36:06.188Z,2.33
2023-04-05T10:38:45.955Z,2.37
2023-04-05T10:41:14.760Z,2.40
2023-04-05T10:43:42.646Z,2.07
2023-04-05T10:46:11.148Z,2.40
2023-04-05T10:48:41.210Z,2.20
2023-04-05T10:51:07.936Z,2.43
2023-04-05T10:53:34.671Z,2.50
2023-04-05T10:56:02.027Z,2.50
2023-04-05T10:58:29.503Z,2.90
2023-04-05T11:00:56.565Z,2.70
2023-04-05T11:04:11.821Z,2.80
2023-04-05T11:06:39.263Z,2.17
2023-04-05T11:09:07.635Z,2.57
2023-04-05T11:11:43.802Z,2.50
2023-04-05T11:14:25.374Z,2.33
2023-04-05T11:16:57.122Z,2.37
2023-04-05T11:20:03.862Z,2.30
2023-04-05T11:22:31.150Z,2.07
2023-04-05T11:25:01.853Z,2.40
2023-04-05T11:27:41.108Z,2.13
2023-04-05T11:30:08.430Z,2.20
2023-04-05T11:32:45.606Z,2.40
2023-04-05T11:35:18.160Z,2.50
2023-04-05T11:37:59.939Z,2.70
2023-04-05T11:40:31.516Z,2.80
2023-04-05T11:43:10.142Z,2.70
2023-04-05T11:45:38.820Z,2.57
2023-04-05T11:48:10.289Z,2.60
2023-04-05T11:50:38.656Z,2.90
2023-04-05T11:53:15.807Z,2.50
2023-04-05T11:55:44.399Z,2.27
2023-04-05T11:58:15.544Z,2.40
2023-04-05T12:00:43.072Z,2.87
2023-04-05T12:03:16.341Z,2.83
2023-04-05T12:05:50.029Z,2.60
2023-04-05T12:08:18.004Z,2.73
2023-04-05T12:10:45.015Z,2.50
2023-04-05T12:13:11.741Z,2.40
2023-04-05T12:15:40.804Z,2.27
2023-04-05T12:18:13.651Z,2.50
2023-04-05T12:20:40.646Z,2.70
2023-04-05T12:23:07.383Z,2.80
2023-04-05T12:25:34.127Z,2.17
2023-04-05T12:28:09.284Z,2.23
2023-04-05T12:30:38.643Z,2.30
2023-04-05T12:33:09.742Z,2.33
2023-04-05T12:35:36.572Z,2.10
2023-04-05T12:38:05.696Z,2.10
2023-04-05T12:40:34.264Z,2.30
2023-04-05T12:43:04.575Z,2.03
2023-04-05T12:45:40.300Z,2.13
2023-04-05T12:48:11.170Z,2.30
2023-04-05T12:50:44.299Z,2.20
2023-04-05T12:53:18.060Z,2.10
2023-04-05T12:55:50.706Z,2.30
2023-04-05T12:58:20.007Z,2.20
2023-04-05T13:00:47.836Z,2.17
2023-04-05T13:03:21.082Z,2.00
2023-04-05T13:05:52.036Z,2.20
2023-04-05T13:08:20.502Z,2.13
2023-04-05T13:10:51.091Z,2.13
2023-04-05T13:13:23.258Z,2.30
2023-04-05T13:15:52.062Z,2.20
2023-04-05T13:18:20.793Z,2.20
2023-04-05T13:20:48.224Z,2.37
2023-04-05T13:23:15.074Z,2.30
2023-04-05T13:25:43.047Z,2.50
2023-04-05T13:28:10.635Z,2.00
2023-04-05T13:30:38.065Z,2.20
2023-04-05T13:33:05.139Z,2.30
2023-04-05T13:35:32.426Z,2.23
2023-04-05T13:38:01.111Z,2.20
2023-04-05T13:40:29.323Z,2.10
2023-04-05T13:42:55.985Z,2.07
2023-04-05T13:45:22.646Z,2.00
2023-04-05T13:47:49.525Z,2.20
2023-04-05T13:50:16.489Z,2.17
2023-04-05T13:52:43.401Z,2.10
2023-04-05T13:55:10.268Z,2.10
2023-04-05T13:57:37.648Z,2.13
2023-04-05T14:00:08.253Z,2.00
2023-04-05T14:02:41.878Z,2.33
2023-04-05T14:05:10.401Z,2.23
2023-04-05T14:07:37.664Z,2.10
2023-04-05T14:10:06.919Z,2.03
2023-04-05T14:12:34.753Z,2.30
2023-04-05T14:15:01.807Z,1.73
2023-04-05T14:17:28.686Z,2.20
2023-04-05T14:19:55.494Z,2.07
2023-04-05T14:22:22.500Z,2.10
2023-04-05T14:24:49.463Z,2.23
2023-04-05T14:27:16.514Z,1.93
2023-04-05T14:29:46.022Z,1.97
2023-04-05T14:32:13.668Z,2.03
2023-04-05T14:34:40.537Z,2.17
2023-04-05T14:37:08.083Z,2.20
2023-04-05T14:39:36.228Z,2.03
2023-04-05T14:42:04.724Z,2.40
2023-04-05T14:44:31.636Z,2.10
2023-04-05T14:46:59.032Z,2.53
2023-04-05T14:49:26.129Z,2.43
2023-04-05T14:51:52.875Z,2.13
2023-04-05T14:54:20.325Z,2.00
2023-04-05T14:56:49.739Z,2.03
2023-04-05T14:59:17.088Z,2.20
2023-04-05T15:01:46.078Z,2.20
2023-04-05T15:04:13.353Z,2.80
2023-04-05T15:06:40.463Z,2.17
2023-04-05T15:09:07.234Z,2.10
2023-04-05T15:11:40.337Z,2.53
2023-04-05T15:14:08.549Z,2.00
2023-04-05T15:16:38.517Z,2.03
2023-04-05T15:19:05.313Z,2.30
2023-04-05T15:21:32.667Z,2.50
2023-04-05T15:23:59.458Z,2.00
2023-04-05T15:26:27.574Z,2.40
2023-04-05T15:28:54.403Z,1.87
2023-04-05T15:31:21.124Z,2.10
2023-04-05T15:33:47.857Z,2.23
2023-04-05T15:36:15.628Z,2.30
2023-04-05T15:38:43.054Z,2.17
2023-04-05T15:41:12.234Z,2.23
2023-04-05T15:43:40.731Z,2.10
2023-04-05T15:46:09.051Z,2.10
2023-04-05T15:48:35.928Z,2.20
2023-04-05T15:51:03.082Z,2.07
2023-04-05T15:53:29.776Z,2.27
2023-04-05T15:55:58.398Z,2.40
2023-04-05T15:58:25.548Z,2.17
2023-04-05T16:00:52.487Z,2.50
2023-04-05T16:03:19.448Z,2.10
2023-04-05T16:05:46.702Z,2.27
2023-04-05T16:08:13.500Z,2.20
2023-04-05T16:10:40.406Z,2.10
2023-04-05T16:13:08.260Z,2.10
2023-04-05T16:15:35.101Z,2.27
2023-04-05T16:18:02.068Z,2.30
2023-04-05T16:20:30.190Z,2.70
2023-04-05T16:22:57.149Z,2.30
2023-04-05T16:25:25.042Z,2.63
2023-04-05T16:27:52.094Z,2.50
2023-04-05T16:30:21.388Z,2.60
2023-04-05T16:32:51.272Z,2.23
2023-04-05T16:35:36.852Z,2.10
2023-04-05T16:38:23.389Z,2.20
2023-04-05T16:41:09.033Z,2.30
2023-04-05T16:43:54.878Z,2.63
2023-04-05T16:46:40.551Z,2.30
2023-04-05T16:49:27.310Z,2.10
2023-04-05T16:52:12.934Z,2.37
2023-04-05T16:54:59.431Z,2.20
2023-04-05T16:57:45.680Z,2.10
2023-04-05T17:00:31.326Z,2.30
2023-04-05T17:03:17.927Z,2.30
2023-04-05T17:06:03.486Z,2.47
2023-04-05T17:08:50.593Z,2.10
2023-04-05T17:11:36.161Z,2.00
2023-04-05T17:14:21.574Z,2.13
2023-04-05T17:17:08.323Z,2.70
2023-04-05T17:19:56.132Z,2.10
2023-04-05T17:22:44.396Z,1.80
2023-04-05T17:25:31.401Z,2.23
2023-04-05T17:28:16.678Z,2.23
2023-04-05T17:31:04.832Z,2.00
2023-04-05T17:33:53.080Z,1.83
2023-04-05T17:36:40.972Z,2.00
2023-04-05T17:39:26.670Z,1.80
2023-04-05T17:42:16.209Z,2.20
2023-04-05T17:45:01.498Z,2.10
2023-04-05T17:47:46.932Z,2.20
2023-04-05T17:50:33.147Z,2.30
2023-04-05T17:53:18.381Z,2.17
2023-04-05T17:56:04.108Z,1.90
2023-04-05T17:58:49.757Z,2.40
2023-04-05T18:01:37.613Z,2.40
2023-04-05T18:04:24.675Z,2.57
2023-04-05T18:07:09.967Z,2.10
2023-04-05T18:10:01.092Z,2.20
2023-04-05T18:12:46.833Z,2.13
2023-04-05T18:15:35.398Z,2.00
2023-04-05T18:18:21.567Z,2.40
2023-04-05T18:21:32.512Z,2.10
2023-04-05T18:24:18.621Z,2.33
2023-04-05T18:27:08.235Z,2.60
2023-04-05T18:29:53.941Z,2.40
2023-04-05T18:32:41.472Z,2.60
2023-04-05T18:35:27.357Z,2.60
2023-04-05T18:38:15.572Z,2.30
2023-04-05T18:41:04.614Z,2.03
2023-04-05T18:43:54.084Z,2.47
2023-04-05T18:46:39.575Z,2.50
2023-04-05T18:49:26.165Z,2.43
2023-04-05T18:52:11.555Z,2.50
2023-04-05T18:54:58.640Z,2.57
2023-04-05T18:57:44.143Z,2.57
2023-04-05T19:00:32.497Z,2.27
2023-04-05T19:03:17.993Z,2.67
2023-04-05T19:06:03.184Z,2.43
2023-04-05T19:08:48.618Z,2.60
2023-04-05T19:11:33.770Z,2.60
2023-04-05T19:14:19.610Z,2.80
2023-04-05T19:17:04.969Z,2.60
2023-04-05T19:19:50.709Z,2.43
2023-04-05T19:22:36.244Z,2.43
2023-04-05T19:25:21.525Z,2.23
2023-04-05T19:28:08.558Z,2.33
2023-04-05T19:30:54.633Z,2.50
2023-04-05T19:33:40.782Z,2.60
2023-04-05T19:36:29.557Z,2.80
2023-04-05T19:39:15.419Z,2.60
2023-04-05T19:42:01.177Z,2.63
2023-04-05T19:44:51.322Z,2.80
2023-04-05T19:47:43.459Z,2.70
2023-04-05T19:50:34.994Z,2.70
2023-04-05T19:53:40.732Z,2.50
2023-04-05T19:56:32.024Z,2.80
2023-04-05T19:59:32.778Z,2.67
2023-04-05T20:02:44.771Z,2.67
2023-04-05T20:05:14.333Z,2.53
2023-04-05T20:07:41.196Z,3.23
2023-04-05T20:10:15.019Z,3.00
2023-04-05T20:12:41.777Z,2.70
2023-04-05T20:15:12.418Z,2.93
2023-04-05T20:17:42.428Z,2.90
2023-04-05T20:20:09.827Z,2.83
2023-04-05T20:22:37.195Z,2.97
2023-04-05T20:25:36.834Z,2.77
2023-04-05T20:28:26.888Z,2.80
2023-04-05T20:30:54.549Z,3.00
2023-04-05T20:33:39.741Z,2.80
2023-04-05T20:36:12.631Z,2.83
2023-04-05T20:38:43.205Z,3.43
2023-04-05T20:41:11.619Z,3.17
2023-04-05T20:43:39.056Z,3.13
2023-04-05T20:46:06.631Z,2.63
2023-04-05T20:48:35.070Z,3.00
2023-04-05T20:51:04.668Z,3.13
2023-04-05T20:53:31.375Z,2.90
2023-04-05T20:55:59.359Z,2.70
2023-04-05T20:58:27.464Z,2.90
2023-04-05T21:00:54.771Z,2.60
2023-04-05T21:03:22.000Z,3.00
2023-04-05T21:05:49.098Z,2.70
2023-04-05T21:08:16.395Z,2.70
2023-04-05T21:10:43.069Z,2.37
2023-04-05T21:13:09.804Z,2.80
2023-04-05T21:15:36.699Z,2.87
2023-04-05T21:18:05.998Z,2.90
2023-04-05T21:20:34.451Z,2.53
2023-04-05T21:23:04.067Z,3.10
2023-04-05T21:29:08.723Z,2.77
2023-04-05T21:31:35.617Z,2.57
2023-04-05T21:34:03.575Z,2.70
2023-04-05T21:36:31.082Z,2.87
2023-04-05T21:38:57.737Z,2.97
2023-04-05T21:41:24.369Z,2.87
2023-04-05T21:43:51.186Z,2.73
2023-04-05T21:46:19.405Z,3.10
2023-04-05T21:48:47.210Z,3.00
2023-04-05T21:51:13.797Z,3.20
2023-04-05T21:53:40.436Z,3.07
2023-04-05T21:56:07.067Z,3.00
2023-04-05T21:58:33.665Z,2.93
2023-04-05T22:01:00.441Z,3.00
2023-04-05T22:03:27.151Z,3.13
2023-04-05T22:05:53.773Z,3.03
2023-04-05T22:08:20.650Z,3.17
2023-04-05T22:10:47.555Z,3.43
2023-04-05T22:13:14.160Z,3.40
2023-04-05T22:15:40.963Z,3.27
2023-04-05T22:18:07.574Z,3.13
2023-04-05T22:20:34.228Z,3.40
2023-04-05T22:23:01.182Z,3.27
2023-04-05T22:25:29.037Z,3.20
2023-04-05T22:27:59.892Z,3.20
2023-04-05T22:30:28.573Z,3.00
2023-04-05T22:32:55.566Z,3.37
2023-04-05T22:35:22.365Z,2.93
2023-04-05T22:37:49.023Z,3.40
2023-04-05T22:40:15.981Z,3.17
2023-04-05T22:42:42.704Z,3.20
2023-04-05T22:45:12.732Z,3.40
2023-04-05T22:47:39.514Z,3.13
2023-04-05T22:50:07.252Z,3.20
2023-04-05T22:52:33.932Z,3.57
2023-04-05T22:55:01.445Z,3.30
2023-04-05T22:57:29.195Z,3.20
2023-04-05T22:59:55.915Z,3.43
2023-04-05T23:02:23.309Z,3.57
2023-04-05T23:04:50.774Z,3.43
2023-04-05T23:07:17.532Z,3.40
2023-04-05T23:09:44.177Z,3.33
2023-04-05T23:12:11.559Z,3.37
2023-04-05T23:14:38.212Z,3.70
2023-04-05T23:17:05.455Z,3.50
2023-04-05T23:19:32.341Z,3.83
2023-04-05T23:21:59.117Z,3.83
2023-04-05T23:24:26.099Z,3.40
2023-04-05T23:26:52.805Z,3.40
2023-04-05T23:29:19.516Z,3.63
2023-04-05T23:31:48.079Z,3.30
2023-04-05T23:34:14.731Z,3.60
2023-04-05T23:36:41.351Z,3.50
2023-04-05T23:39:08.343Z,3.60
2023-04-05T23:41:35.142Z,3.80
2023-04-05T23:44:01.762Z,3.60
2023-04-05T23:46:28.482Z,3.63
2023-04-05T23:48:55.104Z,3.80
2023-04-05T23:51:21.783Z,3.77
2023-04-05T23:53:48.419Z,3.97
2023-04-05T23:56:15.552Z,4.00
2023-04-05T23:58:42.375Z,4.43
